createdAt,value
2017-06-19T00:02:21.617Z,2.73
2017-06-19T00:04:50.097Z,2.27
2017-06-19T00:07:18.378Z,2.70
2017-06-19T00:09:45.898Z,3.00
2017-06-19T00:12:13.465Z,3.53
2017-06-19T00:14:41.014Z,3.20
2017-06-19T00:17:09.343Z,3.30
2017-06-19T00:19:36.945Z,2.97
2017-06-19T00:22:04.655Z,3.00
2017-06-19T00:24:33.103Z,3.30
2017-06-19T00:27:00.669Z,3.13
2017-06-19T00:29:28.183Z,3.30
2017-06-19T00:31:55.733Z,2.83
2017-06-19T00:34:23.406Z,2.93
2017-06-19T00:36:50.928Z,2.90
2017-06-19T00:39:18.515Z,3.30
2017-06-19T00:41:46.196Z,3.07
2017-06-19T00:44:13.701Z,2.97
2017-06-19T00:46:41.211Z,2.93
2017-06-19T00:49:08.800Z,2.77
2017-06-19T00:51:36.307Z,2.90
2017-06-19T00:54:04.589Z,2.70
2017-06-19T00:56:32.396Z,3.10
2017-06-19T00:58:59.908Z,3.30
2017-06-19T01:01:28.186Z,3.10
2017-06-19T01:03:56.544Z,3.50
2017-06-19T01:06:24.857Z,2.90
2017-06-19T01:08:52.367Z,3.30
2017-06-19T01:11:19.924Z,3.27
2017-06-19T01:13:47.431Z,3.60
2017-06-19T01:16:14.935Z,3.30
2017-06-19T01:18:42.528Z,3.20
2017-06-19T01:21:10.071Z,2.90
2017-06-19T01:23:37.633Z,3.30
2017-06-19T01:26:05.248Z,3.13
2017-06-19T01:28:32.768Z,3.03
2017-06-19T01:31:00.331Z,3.00
2017-06-19T01:33:27.898Z,3.13
2017-06-19T01:35:56.186Z,3.30
2017-06-19T01:38:23.701Z,3.40
2017-06-19T01:40:51.264Z,3.57
2017-06-19T01:43:18.780Z,3.00
2017-06-19T01:45:46.304Z,3.20
2017-06-19T01:48:13.885Z,3.40
2017-06-19T01:50:41.615Z,3.90
2017-06-19T01:53:09.141Z,3.30
2017-06-19T01:55:36.689Z,3.13
2017-06-19T01:58:04.199Z,3.20
2017-06-19T02:00:31.778Z,3.90
2017-06-19T02:02:59.388Z,3.70
2017-06-19T02:05:26.964Z,3.73
2017-06-19T02:07:54.471Z,3.90
2017-06-19T02:10:22.031Z,5.17
2017-06-19T02:12:49.551Z,4.30
2017-06-19T02:15:17.071Z,4.30
2017-06-19T02:17:44.628Z,4.63
2017-06-19T02:20:12.147Z,5.00
2017-06-19T02:22:39.669Z,4.47
2017-06-19T02:25:07.288Z,5.07
2017-06-19T02:27:35.615Z,4.30
2017-06-19T02:30:03.135Z,3.63
2017-06-19T02:32:30.698Z,3.70
2017-06-19T02:34:58.220Z,3.60
2017-06-19T02:37:25.755Z,3.83
2017-06-19T02:39:53.316Z,3.43
2017-06-19T02:42:20.854Z,4.10
2017-06-19T02:44:48.503Z,4.27
2017-06-19T02:47:16.087Z,3.70
2017-06-19T02:49:43.643Z,3.93
2017-06-19T02:52:11.168Z,4.37
2017-06-19T02:54:39.697Z,3.63
2017-06-19T02:57:07.221Z,4.70
2017-06-19T02:59:34.739Z,3.70
2017-06-19T03:02:02.286Z,4.37
2017-06-19T03:04:29.798Z,3.93
2017-06-19T03:06:57.355Z,3.43
2017-06-19T03:09:25.636Z,4.23
2017-06-19T03:11:53.915Z,4.70
2017-06-19T03:14:22.245Z,4.63
2017-06-19T03:16:49.896Z,4.00
2017-06-19T03:19:17.419Z,3.97
2017-06-19T03:21:44.977Z,4.20
2017-06-19T03:24:12.502Z,4.87
2017-06-19T03:26:40.028Z,4.10
2017-06-19T03:29:07.588Z,4.63
2017-06-19T03:31:35.209Z,4.57
2017-06-19T03:34:02.736Z,4.70
2017-06-19T03:36:30.330Z,4.17
2017-06-19T03:38:58.915Z,4.10
2017-06-19T03:41:27.211Z,4.30
2017-06-19T03:43:55.659Z,4.43
2017-06-19T03:46:23.962Z,4.37
2017-06-19T03:48:51.573Z,4.87
2017-06-19T03:51:19.195Z,4.50
2017-06-19T03:53:46.724Z,4.70
2017-06-19T03:56:14.285Z,4.50
2017-06-19T03:58:41.871Z,3.90
2017-06-19T04:01:09.418Z,4.47
2017-06-19T04:03:37.081Z,4.83
2017-06-19T04:06:04.588Z,4.90
2017-06-19T04:08:32.112Z,4.13
2017-06-19T04:10:59.663Z,4.47
2017-06-19T04:13:27.260Z,4.20
2017-06-19T04:15:54.807Z,4.10
2017-06-19T04:18:22.341Z,4.80
2017-06-19T04:20:49.938Z,4.80
2017-06-19T04:23:17.515Z,4.50
2017-06-19T04:25:45.115Z,4.10
2017-06-19T04:28:12.772Z,4.93
2017-06-19T04:30:40.433Z,4.60
2017-06-19T04:33:07.956Z,3.80
2017-06-19T04:35:35.476Z,4.30
2017-06-19T04:38:03.815Z,4.03
2017-06-19T04:40:31.391Z,3.93
2017-06-19T04:42:58.905Z,4.20
2017-06-19T04:45:26.472Z,4.17
2017-06-19T04:47:54.030Z,3.70
2017-06-19T04:50:21.561Z,3.87
2017-06-19T04:52:49.090Z,4.30
2017-06-19T04:55:16.692Z,3.90
2017-06-19T04:57:44.265Z,4.10
2017-06-19T05:00:11.837Z,3.70
2017-06-19T05:02:39.431Z,3.30
2017-06-19T05:05:06.944Z,3.77
2017-06-19T05:07:34.452Z,4.10
2017-06-19T05:10:02.004Z,4.00
2017-06-19T05:12:29.512Z,3.73
2017-06-19T05:14:57.060Z,3.73
2017-06-19T05:17:25.341Z,3.40
2017-06-19T05:19:52.920Z,4.00
2017-06-19T05:22:20.437Z,3.30
2017-06-19T05:24:47.954Z,3.47
2017-06-19T05:27:15.532Z,3.30
2017-06-19T05:29:43.073Z,3.60
2017-06-19T05:32:10.579Z,3.30
2017-06-19T05:34:38.174Z,2.87
2017-06-19T05:37:05.679Z,3.43
2017-06-19T05:39:33.198Z,3.30
2017-06-19T05:42:00.768Z,3.17
2017-06-19T05:44:28.272Z,3.50
2017-06-19T05:46:55.785Z,3.00
2017-06-19T05:49:23.357Z,3.10
2017-06-19T05:51:50.892Z,2.83
2017-06-19T05:54:18.403Z,2.97
2017-06-19T05:56:45.961Z,3.27
2017-06-19T05:59:13.783Z,2.60
2017-06-19T06:01:41.353Z,2.87
2017-06-19T06:04:08.913Z,2.53
2017-06-19T06:06:36.436Z,2.80
2017-06-19T06:09:04.772Z,2.47
2017-06-19T06:11:32.360Z,2.53
2017-06-19T06:13:59.895Z,2.30
2017-06-19T06:16:27.460Z,2.70
2017-06-19T06:18:55.026Z,2.73
2017-06-19T06:21:22.549Z,2.60
2017-06-19T06:23:50.078Z,2.30
2017-06-19T06:26:18.392Z,2.43
2017-06-19T06:28:45.902Z,2.93
2017-06-19T06:31:13.415Z,3.03
2017-06-19T06:33:41.079Z,3.13
2017-06-19T06:36:08.615Z,2.60
2017-06-19T06:38:36.181Z,2.60
2017-06-19T06:41:04.098Z,2.50
2017-06-19T06:43:31.619Z,2.53
2017-06-19T06:46:00.065Z,2.70
2017-06-19T06:48:28.422Z,2.20
2017-06-19T06:50:55.961Z,3.20
2017-06-19T06:53:23.492Z,2.70
2017-06-19T06:55:51.057Z,2.73
2017-06-19T06:58:18.592Z,2.37
2017-06-19T07:00:46.275Z,2.50
2017-06-19T07:03:13.868Z,2.43
2017-06-19T07:05:41.455Z,2.60
2017-06-19T07:08:09.001Z,2.57
2017-06-19T07:10:39.635Z,2.23
2017-06-19T07:13:07.173Z,2.60
2017-06-19T07:15:34.693Z,2.37
2017-06-19T07:18:02.503Z,2.87
2017-06-19T07:20:30.039Z,2.30
2017-06-19T07:22:57.638Z,2.33
2017-06-19T07:25:25.204Z,2.47
2017-06-19T07:27:52.752Z,2.50
2017-06-19T07:30:20.332Z,1.90
2017-06-19T07:32:47.860Z,2.17
2017-06-19T07:35:15.427Z,1.90
2017-06-19T07:37:43.041Z,2.10
2017-06-19T07:40:10.689Z,2.30
2017-06-19T07:42:38.448Z,2.13
2017-06-19T07:45:06.100Z,2.10
2017-06-19T07:47:33.723Z,2.13
2017-06-19T07:50:01.317Z,2.40
2017-06-19T07:52:28.994Z,2.77
2017-06-19T07:54:56.545Z,2.10
2017-06-19T07:57:24.095Z,2.40
2017-06-19T07:59:51.825Z,2.03
2017-06-19T08:02:19.368Z,1.93
2017-06-19T08:04:46.890Z,2.17
2017-06-19T08:07:14.537Z,1.87
2017-06-19T08:09:42.070Z,2.20
2017-06-19T08:12:09.671Z,1.80
2017-06-19T08:14:37.300Z,2.17
2017-06-19T08:17:04.833Z,1.87
2017-06-19T08:19:32.481Z,2.43
2017-06-19T08:22:06.731Z,2.20
2017-06-19T08:24:34.322Z,1.93
2017-06-19T08:27:01.999Z,2.23
2017-06-19T08:29:29.838Z,2.30
2017-06-19T08:31:57.382Z,2.20
2017-06-19T08:34:24.961Z,2.30
2017-06-19T08:36:52.556Z,2.30
2017-06-19T08:39:20.117Z,7.63
2017-06-19T08:41:47.702Z,2.10
2017-06-19T08:44:16.088Z,1.90
2017-06-19T08:46:43.672Z,2.30
2017-06-19T08:49:11.282Z,2.00
2017-06-19T08:51:38.823Z,2.20
2017-06-19T08:54:07.205Z,2.27
2017-06-19T08:56:34.821Z,2.00
2017-06-19T08:59:02.598Z,2.20
2017-06-19T09:01:30.171Z,2.50
2017-06-19T09:03:57.793Z,2.30
2017-06-19T09:06:25.356Z,2.10
2017-06-19T09:08:52.896Z,1.80
2017-06-19T09:11:20.484Z,2.20
2017-06-19T09:13:48.039Z,2.37
2017-06-19T09:16:16.599Z,1.93
2017-06-19T09:18:44.254Z,1.90
2017-06-19T09:21:11.793Z,2.50
2017-06-19T09:23:39.513Z,1.93
2017-06-19T09:26:07.105Z,2.43
2017-06-19T09:28:34.895Z,2.30
2017-06-19T09:31:02.501Z,2.10
2017-06-19T09:33:30.198Z,1.90
2017-06-19T09:35:57.738Z,2.20
2017-06-19T09:38:25.308Z,2.10
2017-06-19T09:40:53.016Z,2.20
2017-06-19T09:43:20.639Z,2.00
2017-06-19T09:45:48.264Z,1.87
2017-06-19T09:48:16.781Z,2.13
2017-06-19T09:50:44.493Z,2.20
2017-06-19T09:53:12.121Z,2.20
2017-06-19T09:55:39.702Z,2.00
2017-06-19T09:58:07.383Z,2.30
2017-06-19T10:00:34.918Z,2.50
2017-06-19T10:03:02.512Z,2.07
2017-06-19T10:05:30.249Z,2.40
2017-06-19T10:07:57.782Z,2.57
2017-06-19T10:10:25.663Z,2.57
2017-06-19T10:12:53.284Z,2.43
2017-06-19T10:15:20.834Z,2.50
2017-06-19T10:17:49.262Z,2.30
2017-06-19T10:20:16.812Z,1.90
2017-06-19T10:22:44.434Z,2.20
2017-06-19T10:25:12.776Z,2.40
2017-06-19T10:27:40.473Z,2.00
2017-06-19T10:30:08.324Z,2.10
2017-06-19T10:32:35.905Z,2.03
2017-06-19T10:35:04.521Z,1.80
2017-06-19T10:37:32.064Z,1.90
2017-06-19T10:39:59.671Z,2.47
2017-06-19T10:42:27.247Z,2.60
2017-06-19T10:44:54.793Z,2.53
2017-06-19T10:47:22.373Z,2.07
2017-06-19T10:49:49.926Z,2.60
2017-06-19T10:52:17.467Z,2.17
2017-06-19T10:54:45.397Z,2.10
2017-06-19T10:57:12.936Z,2.67
2017-06-19T10:59:41.265Z,2.30
2017-06-19T11:02:08.924Z,2.30
2017-06-19T11:04:36.496Z,2.70
2017-06-19T11:07:04.020Z,2.73
2017-06-19T11:09:31.833Z,2.57
2017-06-19T11:11:59.393Z,2.50
2017-06-19T11:14:27.564Z,3.00
2017-06-19T11:16:55.853Z,2.33
2017-06-19T11:19:23.384Z,2.20
2017-06-19T11:21:50.901Z,2.53
2017-06-19T11:24:18.499Z,2.60
2017-06-19T11:26:46.827Z,2.60
2017-06-19T11:29:14.344Z,2.50
2017-06-19T11:31:41.956Z,2.30
2017-06-19T11:34:09.493Z,2.63
2017-06-19T11:36:37.048Z,2.53
2017-06-19T11:39:04.593Z,2.40
2017-06-19T11:41:32.220Z,2.40
2017-06-19T11:43:59.852Z,2.60
2017-06-19T11:46:27.388Z,2.70
2017-06-19T11:48:54.942Z,2.57
2017-06-19T11:51:22.534Z,2.97
2017-06-19T11:53:50.052Z,3.00
2017-06-19T11:56:17.588Z,2.70
2017-06-19T11:58:45.172Z,3.27
2017-06-19T12:01:12.755Z,2.77
2017-06-19T12:03:40.276Z,2.30
2017-06-19T12:06:07.877Z,3.10
2017-06-19T12:08:35.409Z,2.70
2017-06-19T12:11:02.937Z,2.60
2017-06-19T12:13:31.332Z,2.67
2017-06-19T12:15:58.904Z,2.60
2017-06-19T12:18:26.875Z,2.17
2017-06-19T12:20:54.493Z,2.63
2017-06-19T12:23:22.055Z,2.93
2017-06-19T12:25:49.583Z,2.63
2017-06-19T12:28:17.223Z,2.73
2017-06-19T12:30:44.744Z,2.67
2017-06-19T12:33:13.037Z,2.83
2017-06-19T12:35:40.657Z,3.60
2017-06-19T12:38:08.213Z,2.53
2017-06-19T12:40:35.748Z,3.00
2017-06-19T12:43:03.352Z,2.43
2017-06-19T12:45:30.881Z,2.80
2017-06-19T12:47:58.429Z,3.20
2017-06-19T12:50:26.064Z,2.50
2017-06-19T12:52:53.596Z,2.57
2017-06-19T12:55:21.129Z,2.87
2017-06-19T12:57:49.503Z,2.97
2017-06-19T13:00:17.079Z,2.60
2017-06-19T13:02:44.623Z,2.60
2017-06-19T13:05:12.274Z,3.00
2017-06-19T13:07:39.791Z,2.87
2017-06-19T13:10:07.386Z,3.10
2017-06-19T13:12:34.927Z,2.60
2017-06-19T13:15:02.455Z,3.70
2017-06-19T13:17:30.036Z,2.53
2017-06-19T13:19:57.565Z,3.20
2017-06-19T13:22:25.091Z,2.80
2017-06-19T13:24:53.476Z,3.03
2017-06-19T13:27:21.036Z,2.80
2017-06-19T13:29:49.444Z,3.23
2017-06-19T13:32:17.062Z,3.30
2017-06-19T13:34:45.352Z,2.70
2017-06-19T13:37:12.930Z,2.90
2017-06-19T13:39:40.564Z,3.00
2017-06-19T13:42:08.869Z,3.00
2017-06-19T13:44:36.472Z,3.10
2017-06-19T13:47:04.101Z,3.00
2017-06-19T13:49:31.625Z,2.80
2017-06-19T13:51:59.171Z,3.10
2017-06-19T13:54:26.799Z,2.67
2017-06-19T13:56:54.320Z,2.60
2017-06-19T13:59:21.867Z,2.90
2017-06-19T14:01:49.512Z,3.10
2017-06-19T14:04:17.032Z,3.10
2017-06-19T14:06:44.569Z,3.30
2017-06-19T14:09:12.133Z,2.90
2017-06-19T14:11:39.674Z,3.10
2017-06-19T14:14:07.189Z,2.90
2017-06-19T14:16:34.779Z,3.03
2017-06-19T14:19:02.454Z,3.20
2017-06-19T14:21:29.991Z,3.30
2017-06-19T14:23:57.564Z,2.90
2017-06-19T14:26:25.095Z,3.03
2017-06-19T14:28:52.610Z,3.30
2017-06-19T14:31:20.180Z,3.10
2017-06-19T14:33:47.736Z,3.10
2017-06-19T14:36:15.292Z,3.00
2017-06-19T14:38:46.165Z,2.60
2017-06-19T14:41:13.903Z,3.10
2017-06-19T14:43:42.242Z,2.80
2017-06-19T14:46:09.760Z,2.40
2017-06-19T14:48:37.299Z,2.63
2017-06-19T14:51:05.668Z,3.10
2017-06-19T14:53:33.209Z,2.87
2017-06-19T14:56:00.729Z,2.80
2017-06-19T14:58:28.284Z,2.93
2017-06-19T15:00:55.857Z,3.20
2017-06-19T15:03:23.387Z,2.67
2017-06-19T15:05:50.960Z,2.97
2017-06-19T15:08:18.509Z,3.00
2017-06-19T15:10:46.070Z,3.33
2017-06-19T15:13:13.675Z,3.40
2017-06-19T15:15:41.205Z,3.20
2017-06-19T15:18:08.739Z,3.00
2017-06-19T15:20:36.314Z,3.50
2017-06-19T15:23:03.826Z,4.10
2017-06-19T15:25:32.156Z,3.40
2017-06-19T15:27:59.735Z,2.87
2017-06-19T15:30:27.705Z,2.87
2017-06-19T15:32:55.239Z,3.30
2017-06-19T15:35:22.896Z,3.50
2017-06-19T15:37:50.424Z,2.50
2017-06-19T15:40:17.984Z,3.10
2017-06-19T15:42:45.514Z,3.57
2017-06-19T15:45:13.037Z,3.07
2017-06-19T15:47:40.616Z,3.10
2017-06-19T15:50:08.179Z,3.20
2017-06-19T15:52:35.727Z,3.00
2017-06-19T15:55:03.492Z,2.97
2017-06-19T15:57:31.004Z,3.27
2017-06-19T15:59:58.533Z,3.67
2017-06-19T16:02:26.117Z,3.97
2017-06-19T16:04:53.646Z,3.83
2017-06-19T16:07:21.948Z,2.77
2017-06-19T16:09:49.676Z,3.20
2017-06-19T16:12:17.976Z,3.07
2017-06-19T16:14:45.509Z,3.30
2017-06-19T16:17:13.084Z,3.10
2017-06-19T16:19:40.660Z,3.40
2017-06-19T16:22:08.224Z,3.07
2017-06-19T16:24:35.793Z,3.00
2017-06-19T16:27:03.327Z,2.33
2017-06-19T16:29:30.848Z,3.20
2017-06-19T16:31:58.412Z,2.87
2017-06-19T16:34:25.925Z,2.57
2017-06-19T16:36:53.507Z,2.90
2017-06-19T16:39:21.066Z,3.00
2017-06-19T16:41:48.703Z,2.80
2017-06-19T16:44:16.240Z,2.57
2017-06-19T16:46:43.844Z,2.97
2017-06-19T16:49:11.436Z,2.53
2017-06-19T16:51:39.779Z,3.03
2017-06-19T16:54:07.387Z,2.87
2017-06-19T16:56:34.914Z,2.80
2017-06-19T16:59:02.532Z,2.90
2017-06-19T17:01:30.091Z,2.40
2017-06-19T17:03:57.633Z,3.60
2017-06-19T17:06:25.202Z,3.50
2017-06-19T17:08:52.782Z,3.60
2017-06-19T17:11:20.323Z,2.70
2017-06-19T17:13:47.840Z,3.23
2017-06-19T17:16:16.195Z,3.57
2017-06-19T17:18:43.730Z,3.20
2017-06-19T17:21:12.027Z,2.63
2017-06-19T17:23:39.641Z,3.03
2017-06-19T17:26:07.182Z,2.70
2017-06-19T17:28:34.708Z,2.60
2017-06-19T17:31:03.033Z,2.83
2017-06-19T17:33:30.580Z,2.60
2017-06-19T17:35:58.849Z,2.73
2017-06-19T17:38:26.436Z,2.80
2017-06-19T17:40:53.964Z,3.20
2017-06-19T17:43:21.485Z,2.63
2017-06-19T17:45:49.040Z,2.43
2017-06-19T17:48:16.564Z,2.40
2017-06-19T17:50:44.106Z,2.60
2017-06-19T17:53:11.659Z,2.47
2017-06-19T17:55:39.181Z,2.60
2017-06-19T17:58:07.480Z,2.80
2017-06-19T18:00:35.034Z,2.60
2017-06-19T18:03:02.627Z,2.10
2017-06-19T18:05:30.253Z,2.40
2017-06-19T18:07:57.780Z,2.50
2017-06-19T18:10:25.308Z,2.43
2017-06-19T18:12:52.876Z,2.63
2017-06-19T18:15:20.414Z,2.80
2017-06-19T18:17:47.957Z,2.50
2017-06-19T18:20:15.522Z,2.80
2017-06-19T18:22:43.083Z,2.40
2017-06-19T18:25:10.640Z,2.60
2017-06-19T18:27:38.255Z,2.00
2017-06-19T18:30:09.011Z,2.47
2017-06-19T18:32:36.572Z,2.23
2017-06-19T18:35:04.156Z,2.37
2017-06-19T18:37:31.681Z,2.50
2017-06-19T18:39:59.208Z,2.70
2017-06-19T18:42:26.775Z,2.17
2017-06-19T18:44:55.068Z,2.50
2017-06-19T18:47:23.290Z,2.83
2017-06-19T18:49:50.801Z,2.57
2017-06-19T18:52:18.336Z,2.30
2017-06-19T18:54:45.942Z,2.30
2017-06-19T18:57:13.460Z,2.63
2017-06-19T18:59:41.013Z,3.23
2017-06-19T19:02:08.601Z,3.20
2017-06-19T19:04:36.127Z,3.27
2017-06-19T19:07:04.444Z,3.80
2017-06-19T19:09:32.096Z,2.73
2017-06-19T19:11:59.933Z,3.30
2017-06-19T19:14:27.908Z,2.77
2017-06-19T19:16:55.536Z,3.33
2017-06-19T19:19:23.163Z,3.30
2017-06-19T19:21:52.329Z,3.57
2017-06-19T19:24:20.129Z,3.33
2017-06-19T19:26:47.727Z,3.30
2017-06-19T19:29:15.285Z,2.77
2017-06-19T19:31:42.850Z,3.17
2017-06-19T19:34:10.392Z,3.53
2017-06-19T19:36:37.980Z,3.00
2017-06-19T19:39:05.584Z,3.50
2017-06-19T19:41:33.154Z,3.13
2017-06-19T19:44:00.702Z,3.13
2017-06-19T19:46:28.305Z,2.90
2017-06-19T19:48:56.164Z,3.60
2017-06-19T19:51:23.856Z,3.30
2017-06-19T19:53:51.434Z,3.50
2017-06-19T19:56:19.011Z,3.10
2017-06-19T19:58:46.556Z,3.90
2017-06-19T20:01:14.120Z,3.70
2017-06-19T20:03:41.651Z,3.93
2017-06-19T20:06:09.179Z,3.37
2017-06-19T20:08:36.750Z,3.87
2017-06-19T20:11:04.284Z,4.00
2017-06-19T20:13:31.800Z,3.70
2017-06-19T20:15:59.390Z,3.80
2017-06-19T20:18:27.080Z,3.57
2017-06-19T20:20:54.617Z,3.57
2017-06-19T20:23:22.226Z,3.10
2017-06-19T20:25:49.768Z,3.60
2017-06-19T20:28:17.301Z,3.20
2017-06-19T20:30:44.930Z,3.73
2017-06-19T20:33:13.231Z,4.30
2017-06-19T20:35:40.755Z,4.13
2017-06-19T20:38:08.312Z,3.90
2017-06-19T20:40:35.871Z,3.87
2017-06-19T20:43:03.468Z,4.07
2017-06-19T20:45:31.039Z,4.40
2017-06-19T20:47:59.486Z,4.80
2017-06-19T20:50:27.023Z,4.33
2017-06-19T20:52:54.627Z,3.97
2017-06-19T20:55:22.140Z,4.27
2017-06-19T20:57:49.678Z,4.50
2017-06-19T21:00:17.256Z,3.90
2017-06-19T21:02:44.803Z,4.07
2017-06-19T21:05:12.345Z,4.10
2017-06-19T21:07:39.919Z,3.80
2017-06-19T21:10:07.445Z,4.13
2017-06-19T21:12:34.988Z,3.73
2017-06-19T21:15:02.559Z,3.93
2017-06-19T21:17:30.140Z,4.43
2017-06-19T21:19:57.657Z,3.63
2017-06-19T21:22:25.995Z,3.37
2017-06-19T21:24:53.512Z,4.10
2017-06-19T21:27:21.070Z,3.90
2017-06-19T21:29:48.662Z,3.07
2017-06-19T21:32:16.180Z,3.67
2017-06-19T21:34:43.713Z,3.90
2017-06-19T21:37:11.427Z,3.67
2017-06-19T21:39:39.038Z,3.93
2017-06-19T21:42:07.331Z,4.10
2017-06-19T21:44:34.957Z,3.87
2017-06-19T21:47:02.536Z,3.47
2017-06-19T21:49:30.092Z,3.70
2017-06-19T21:51:58.427Z,3.33
2017-06-19T21:54:25.971Z,3.50
2017-06-19T21:56:53.497Z,3.33
2017-06-19T21:59:21.396Z,3.83
2017-06-19T22:01:48.940Z,4.03
2017-06-19T22:04:16.552Z,3.10
2017-06-19T22:06:44.108Z,4.00
2017-06-19T22:09:11.680Z,4.03
2017-06-19T22:11:39.974Z,3.50
2017-06-19T22:14:07.553Z,3.37
2017-06-19T22:16:35.091Z,3.27
2017-06-19T22:19:02.616Z,3.47
2017-06-19T22:21:35.853Z,3.93
2017-06-19T22:24:03.418Z,3.67
2017-06-19T22:26:30.952Z,3.90
2017-06-19T22:28:58.540Z,4.10
2017-06-19T22:31:26.113Z,3.90
2017-06-19T22:33:53.644Z,4.30
2017-06-19T22:36:21.263Z,4.10
2017-06-19T22:38:48.803Z,4.07
2017-06-19T22:41:16.328Z,4.10
2017-06-19T22:46:16.835Z,4.10
2017-06-19T22:48:44.415Z,4.17
2017-06-19T22:51:11.958Z,4.00
2017-06-19T22:53:39.494Z,3.63
2017-06-19T22:56:07.867Z,4.60
2017-06-19T22:58:35.419Z,4.00
2017-06-19T23:01:02.955Z,4.57
2017-06-19T23:03:30.519Z,4.33
2017-06-19T23:05:58.046Z,4.00
2017-06-19T23:08:25.564Z,4.37
2017-06-19T23:10:53.139Z,5.10
2017-06-19T23:13:20.657Z,4.30
2017-06-19T23:15:48.209Z,4.43
2017-06-19T23:18:15.837Z,4.20
2017-06-19T23:20:43.379Z,4.23
2017-06-19T23:23:10.976Z,4.90
2017-06-19T23:25:38.555Z,4.37
2017-06-19T23:28:06.091Z,4.17
2017-06-19T23:30:33.675Z,4.37
2017-06-19T23:33:01.278Z,3.90
2017-06-19T23:35:28.801Z,4.90
2017-06-19T23:37:56.320Z,4.80
2017-06-19T23:40:23.943Z,4.40
2017-06-19T23:42:51.467Z,4.43
2017-06-19T23:45:18.984Z,4.90
2017-06-19T23:47:46.595Z,5.40
2017-06-19T23:50:14.868Z,4.40
2017-06-19T23:52:42.383Z,5.10
2017-06-19T23:55:09.948Z,4.80
2017-06-19T23:57:37.468Z,4.60
